Details From WMKK - Kuala Lumpur Intl - Sepang
To WITT - Banda Aceh Sultan Iskandarmuda
Flight Number -
Tags Generated
Created
Modified
Stats Distance 411 nm / 762 km
Max Altitude 0 ft / 0 m
Waypoints 3
Social Downloads 0
Likes 0
Share VATSIM

Download

Looking for another format? Having issues loading an existing format? Contact us
Advertisement - Login to hide

Notes

Generated

Route

WMKK BAC WITT

ID Type Via Altitude Latitude Longitude Leg Dist Tot Dist Heading (true) Name
O WMKK APT - 0 ft / 0 m 2.77828˚ 101.70172˚ - 0 nm - -
BAC VOR - 0 ft / 0 m 5.52263˚ 95.42222˚ 410 nm 410 nm 294° / 293° BANDA ACEH VOR-DME
O WITT APT - 0 ft / 0 m 5.53457˚ 95.41809˚ 0 nm 411 nm 341° / 341° -

Altitude Profile

Advertisement - Login to hide

Weather


0- 5 10 15 20 25 30 35+ Temperature / ° C

Clouds and Precipitation
Forecast for 2018-05-25 12:00 UTC. Updated 2 hours ago

Ground ~20,000 ft ~40,000 ft Winds

WMKK

Details ICAO WMKK (KUL)
Name Kuala Lumpur Intl - Sepang
Region Malaysia (Peninsular Malaysia)
Timezone Asia/Kuala_Lumpur (UTC+8.0)
Stats Elevation 70 ft / 21 m (AMSL)
Location 2.745578° 101.709913°
Runways 2
Magnetic Variation 0.004° E

METAR

WMKK 251330Z VRB03KT 9999 FEW030 SCT140 BKN280 28/25 Q1007 NOSIG

Decode

TAF

TAF WMKK 251100Z 2512/2618 24005KT 9999 FEW018 BECMG 2521/2523 VRB02KT FEW030 PROB30 TEMPO 2608/2612 02005KT 4000 TSRA FEW010 FEW016CB SCT018

Decode

Departure Runways

ID Width Length Bearing (true) Bearing (mag) Surface Threshold Offset Overrun Length
14L 197 ft / 60 m 13,577 ft / 4,138 m 146.13° 146.13° Asphalt 500 ft / 152 m 0 ft / 0 m
14R 197 ft / 60 m 13,337 ft / 4,065 m 146.22° 146.22° Asphalt 500 ft / 152 m 0 ft / 0 m
32L 197 ft / 60 m 13,337 ft / 4,065 m 326.22° 326.22° Asphalt 500 ft / 152 m 0 ft / 0 m
32R 197 ft / 60 m 13,577 ft / 4,138 m 326.13° 326.13° Asphalt 500 ft / 152 m 0 ft / 0 m

WITT

Details ICAO WITT (BTJ)
Name Banda Aceh Sultan Iskandarmuda
Region Indonesia
Timezone Asia/Jakarta (UTC+7.0)
Stats Elevation 65 ft / 20 m (AMSL)
Location 5.523523° 95.420372°
Runways 1
Magnetic Variation 0.680° W

METAR

Not found

TAF

TAF WITT 250500Z 2506/2606 15006KT 9999 SCT018 PROB40 TEMPO 2508/2512 34007KT 4000 -TSRA FEW016CB BKN017 BECMG 2513/2515 15005KT 7000 SCT017

Decode

Destination Runways

ID Width Length Bearing (true) Bearing (mag) Surface Threshold Offset Overrun Length
17 148 ft / 45 m 8,229 ft / 2,508 m 168.37° 169.05° Asphalt 0 ft / 0 m 210 ft / 64 m
35 148 ft / 45 m 8,229 ft / 2,508 m 348.37° 349.05° Asphalt 0 ft / 0 m 220 ft / 67 m

Approach Navaids

Runway Type Ident Frequency Range Bearing (true) Bearing (mag) Slope Elevation
17 Localiser IBAC 111.30 MHz 18 nm / 33 km 168.46° 169.14° - 65 ft / 20 m (AMSL)
17 Glidescope IBAC 111.30 MHz 10 nm / 19 km 168.37° 169.05° 3.00° 65 ft / 20 m (AMSL)

Popular Alternatives